^^
Station Historical Data
Daily Summary for December 07, 2017 Units:  Both    English   Metric
« Previous Day
Next Day »
Daily Weekly Monthly Yearly Custom
  High: Low: Average:
Temperature: 45.0 °F /  7.2 °C 31.3 °F /  -0.4 °C 37 °F /  2.8 °C
Dew Point: 34.9 °F /  1.6 °C 23.5 °F /  -4.7 °C 29.7 °F /  -1.3 °C
Humidity: 98% 46% 77%
Wind Speed: 0.9mph /  1.4km/h - 0mph /  0km/h
Wind Gust: 3.0mph /  4.8km/h - -
Wind- - East
Pressure: 30.21 in /  1022.9 hPa 30.09 in /  1018.8 hPa -
Precipitation: 0.00 in /  0 mm    
Historical Graphs
 
 
Tabular Data for December 07, 2017
Time Temperature Dew Point Pressure Wind Wind Speed Wind Gust Humidity Rainfall Rate (Hourly)
00:04 35.1 °F /  1.7 °C 32.9 °F /  0.5 °C 30.17in /  1021.6hPa Calm     92% 0.00in /  0mm
00:09 35.1 °F /  1.7 °C 32.9 °F /  0.5 °C 30.17in /  1021.6hPa Calm     92% 0.00in /  0mm
00:14 35.1 °F /  1.7 °C 32.9 °F /  0.5 °C 30.17in /  1021.6hPa Calm     92% 0.00in /  0mm
00:19 34.9 °F /  1.6 °C 33.1 °F /  0.6 °C 30.17in /  1021.6hPa Calm     93% 0.00in /  0mm
00:24 34.9 °F /  1.6 °C 33.1 °F /  0.6 °C 30.17in /  1021.6hPa Calm     93% 0.00in /  0mm
00:29 34.9 °F /  1.6 °C 33.1 °F /  0.6 °C 30.17in /  1021.6hPa Calm     93% 0.00in /  0mm
00:34 34.9 °F /  1.6 °C 33.1 °F /  0.6 °C 30.17in /  1021.6hPa Calm     93% 0.00in /  0mm
00:35 34.9 °F /  1.6 °C 33.1 °F /  0.6 °C 30.17in /  1021.6hPa Calm     93% 0.00in /  0mm
00:40 34.9 °F /  1.6 °C 33.1 °F /  0.6 °C 30.16in /  1021.2hPa Calm     93% 0.00in /  0mm
00:45 34.9 °F /  1.6 °C 33.1 °F /  0.6 °C 30.16in /  1021.2hPa Calm     93% 0.00in /  0mm
00:50 34.9 °F /  1.6 °C 33.3 °F /  0.7 °C 30.16in /  1021.2hPa Calm     94% 0.00in /  0mm
00:55 34.9 °F /  1.6 °C 33.3 °F /  0.7 °C 30.16in /  1021.2hPa Calm     94% 0.00in /  0mm
01:00 34.9 °F /  1.6 °C 33.3 °F /  0.7 °C 30.16in /  1021.2hPa Calm     94% 0.00in /  0mm
01:05 34.9 °F /  1.6 °C 33.3 °F /  0.7 °C 30.16in /  1021.2hPa Calm     94% 0.00in /  0mm
01:10 34.9 °F /  1.6 °C 33.3 °F /  0.7 °C 30.16in /  1021.2hPa Calm     94% 0.00in /  0mm
01:15 34.9 °F /  1.6 °C 33.3 °F /  0.7 °C 30.17in /  1021.6hPa Calm     94% 0.00in /  0mm
01:20 34.7 °F /  1.5 °C 33.1 °F /  0.6 °C 30.17in /  1021.6hPa Calm     94% 0.00in /  0mm
01:25 34.7 °F /  1.5 °C 33.1 °F /  0.6 °C 30.17in /  1021.6hPa Calm     94% 0.00in /  0mm
01:30 34.9 °F /  1.6 °C 33.3 °F /  0.7 °C 30.16in /  1021.2hPa Calm     94% 0.00in /  0mm
01:35 34.9 °F /  1.6 °C 33.3 °F /  0.7 °C 30.16in /  1021.2hPa Calm     94% 0.00in /  0mm
01:40 34.7 °F /  1.5 °C 33.1 °F /  0.6 °C 30.16in /  1021.2hPa Calm     94% 0.00in /  0mm
01:45 34.7 °F /  1.5 °C 33.1 °F /  0.6 °C 30.16in /  1021.2hPa Calm     94% 0.00in /  0mm
01:50 34.7 °F /  1.5 °C 33.1 °F /  0.6 °C 30.16in /  1021.2hPa Calm     94% 0.00in /  0mm
01:55 34.7 °F /  1.5 °C 33.1 °F /  0.6 °C 30.16in /  1021.2hPa Calm     94% 0.00in /  0mm
02:00 34.9 °F /  1.6 °C 33.3 °F /  0.7 °C 30.16in /  1021.2hPa Calm     94% 0.00in /  0mm
02:06 34.7 °F /  1.5 °C 33.1 °F /  0.6 °C 30.16in /  1021.2hPa Calm     94% 0.00in /  0mm
02:11 34.7 °F /  1.5 °C 33.1 °F /  0.6 °C 30.16in /  1021.2hPa Calm     94% 0.00in /  0mm
02:16 34.5 °F /  1.4 °C 32.9 °F /  0.5 °C 30.16in /  1021.2hPa Calm     94% 0.00in /  0mm
02:21 34.5 °F /  1.4 °C 33.3 °F /  0.7 °C 30.16in /  1021.2hPa Calm     95% 0.00in /  0mm
02:26 34.5 °F /  1.4 °C 33.3 °F /  0.7 °C 30.17in /  1021.6hPa Calm     95% 0.00in /  0mm
02:31 34.5 °F /  1.4 °C 33.3 °F /  0.7 °C 30.16in /  1021.2hPa Calm     95% 0.00in /  0mm
02:36 34.3 °F /  1.3 °C 33.1 °F /  0.6 °C 30.17in /  1021.6hPa Calm     95% 0.00in /  0mm
02:41 34.3 °F /  1.3 °C 33.1 °F /  0.6 °C 30.17in /  1021.6hPa Calm     95% 0.00in /  0mm
02:46 34.3 °F /  1.3 °C 33.1 °F /  0.6 °C 30.17in /  1021.6hPa Calm     95% 0.00in /  0mm
02:51 34.3 °F /  1.3 °C 33.1 °F /  0.6 °C 30.16in /  1021.2hPa Calm     95% 0.00in /  0mm
02:56 34.3 °F /  1.3 °C 33.1 °F /  0.6 °C 30.17in /  1021.6hPa Calm     95% 0.00in /  0mm
03:01 34.3 °F /  1.3 °C 33.1 °F /  0.6 °C 30.16in /  1021.2hPa Calm     95% 0.00in /  0mm
03:06 34.3 °F /  1.3 °C 33.1 °F /  0.6 °C 30.16in /  1021.2hPa Calm     95% 0.00in /  0mm
03:11 34.3 °F /  1.3 °C 33.3 °F /  0.7 °C 30.16in /  1021.2hPa Calm     96% 0.00in /  0mm
03:16 34.3 °F /  1.3 °C 33.3 °F /  0.7 °C 30.16in /  1021.2hPa Calm     96% 0.00in /  0mm
03:21 34.3 °F /  1.3 °C 33.3 °F /  0.7 °C 30.16in /  1021.2hPa Calm     96% 0.00in /  0mm
03:26 34.3 °F /  1.3 °C 33.3 °F /  0.7 °C 30.16in /  1021.2hPa Calm     96% 0.00in /  0mm
03:31 34.3 °F /  1.3 °C 33.3 °F /  0.7 °C 30.16in /  1021.2hPa Calm     96% 0.00in /  0mm
03:36 34.3 °F /  1.3 °C 33.3 °F /  0.7 °C 30.17in /  1021.6hPa Calm     96% 0.00in /  0mm
03:41 34.3 °F /  1.3 °C 33.3 °F /  0.7 °C 30.17in /  1021.6hPa Calm     96% 0.00in /  0mm
03:46 34.2 °F /  1.2 °C 33.1 °F /  0.6 °C 30.16in /  1021.2hPa Calm     96% 0.00in /  0mm
03:51 34.2 °F /  1.2 °C 33.1 °F /  0.6 °C 30.17in /  1021.6hPa Calm     96% 0.00in /  0mm
03:56 34.2 °F /  1.2 °C 33.1 °F /  0.6 °C 30.17in /  1021.6hPa Calm     96% 0.00in /  0mm
04:01 34.2 °F /  1.2 °C 33.1 °F /  0.6 °C 30.16in /  1021.2hPa Calm     96% 0.00in /  0mm
04:06 34.0 °F /  1.1 °C 32.9 °F /  0.5 °C 30.17in /  1021.6hPa Calm     96% 0.00in /  0mm
04:12 34.0 °F /  1.1 °C 32.9 °F /  0.5 °C 30.16in /  1021.2hPa Calm     96% 0.00in /  0mm
04:17 34.0 °F /  1.1 °C 32.9 °F /  0.5 °C 30.16in /  1021.2hPa Calm     96% 0.00in /  0mm
04:22 34.0 °F /  1.1 °C 32.9 °F /  0.5 °C 30.16in /  1021.2hPa Calm     96% 0.00in /  0mm
04:27 33.8 °F /  1 °C 32.7 °F /  0.4 °C 30.16in /  1021.2hPa Calm     96% 0.00in /  0mm
04:32 33.8 °F /  1 °C 32.7 °F /  0.4 °C 30.16in /  1021.2hPa Calm     96% 0.00in /  0mm
04:37 33.6 °F /  0.9 °C 32.9 °F /  0.5 °C 30.16in /  1021.2hPa Calm     97% 0.00in /  0mm
04:42 33.6 °F /  0.9 °C 32.9 °F /  0.5 °C 30.16in /  1021.2hPa Calm     97% 0.00in /  0mm
04:47 33.6 °F /  0.9 °C 32.9 °F /  0.5 °C 30.16in /  1021.2hPa Calm     97% 0.00in /  0mm
04:52 33.4 °F /  0.8 °C 32.4 °F /  0.2 °C 30.16in /  1021.2hPa Calm     96% 0.00in /  0mm
04:57 33.3 °F /  0.7 °C 32.2 °F /  0.1 °C 30.16in /  1021.2hPa Calm     96% 0.00in /  0mm
05:02 33.3 °F /  0.7 °C 32.5 °F /  0.3 °C 30.16in /  1021.2hPa Calm     97% 0.00in /  0mm
05:07 33.3 °F /  0.7 °C 32.5 °F /  0.3 °C 30.16in /  1021.2hPa Calm     97% 0.00in /  0mm
05:12 33.3 °F /  0.7 °C 32.5 °F /  0.3 °C 30.16in /  1021.2hPa Calm     97% 0.00in /  0mm
05:17 33.3 °F /  0.7 °C 32.5 °F /  0.3 °C 30.16in /  1021.2hPa Calm     97% 0.00in /  0mm
05:22 33.1 °F /  0.6 °C 32.0 °F /  0 °C 30.16in /  1021.2hPa Calm     96% 0.00in /  0mm
05:27 32.9 °F /  0.5 °C 31.8 °F /  -0.1 °C 30.16in /  1021.2hPa Calm     96% 0.00in /  0mm
05:32 32.9 °F /  0.5 °C 31.8 °F /  -0.1 °C 30.16in /  1021.2hPa Calm     96% 0.00in /  0mm
05:37 32.7 °F /  0.4 °C 31.6 °F /  -0.2 °C 30.16in /  1021.2hPa Calm     96% 0.00in /  0mm
05:42 32.7 °F /  0.4 °C 31.6 °F /  -0.2 °C 30.16in /  1021.2hPa Calm     96% 0.00in /  0mm
05:47 32.7 °F /  0.4 °C 31.6 °F /  -0.2 °C 30.16in /  1021.2hPa Calm     96% 0.00in /  0mm
05:52 32.5 °F /  0.3 °C 31.5 °F /  -0.3 °C 30.16in /  1021.2hPa Calm     96% 0.00in /  0mm
05:57 32.5 °F /  0.3 °C 31.5 °F /  -0.3 °C 30.16in /  1021.2hPa Calm     96% 0.00in /  0mm
06:02 32.5 °F /  0.3 °C 31.8 °F /  -0.1 °C 30.16in /  1021.2hPa Calm     97% 0.00in /  0mm
06:07 32.5 °F /  0.3 °C 31.8 °F /  -0.1 °C 30.16in /  1021.2hPa Calm     97% 0.00in /  0mm
06:12 32.5 °F /  0.3 °C 31.8 °F /  -0.1 °C 30.16in /  1021.2hPa Calm     97% 0.00in /  0mm
06:13 32.5 °F /  0.3 °C 31.8 °F /  -0.1 °C 30.16in /  1021.2hPa Calm     97% 0.00in /  0mm
06:18 32.5 °F /  0.3 °C 31.8 °F /  -0.1 °C 30.17in /  1021.6hPa Calm     97% 0.00in /  0mm
06:23 32.5 °F /  0.3 °C 31.8 °F /  -0.1 °C 30.17in /  1021.6hPa Calm     97% 0.00in /  0mm
06:28 32.4 °F /  0.2 °C 31.6 °F /  -0.2 °C 30.17in /  1021.6hPa Calm     97% 0.00in /  0mm
06:33 32.4 °F /  0.2 °C 31.6 °F /  -0.2 °C 30.17in /  1021.6hPa Calm     97% 0.00in /  0mm
06:38 32.2 °F /  0.1 °C 31.5 °F /  -0.3 °C 30.17in /  1021.6hPa Calm     97% 0.00in /  0mm
06:43 32.2 °F /  0.1 °C 31.5 °F /  -0.3 °C 30.17in /  1021.6hPa Calm     97% 0.00in /  0mm
06:48 31.8 °F /  -0.1 °C 31.1 °F /  -0.5 °C 30.18in /  1021.9hPa Calm     97% 0.00in /  0mm
06:53 31.8 °F /  -0.1 °C 31.1 °F /  -0.5 °C 30.18in /  1021.9hPa Calm     97% 0.00in /  0mm
06:58 31.8 °F /  -0.1 °C 31.1 °F /  -0.5 °C 30.18in /  1021.9hPa Calm     97% 0.00in /  0mm
07:03 31.8 °F /  -0.1 °C 31.1 °F /  -0.5 °C 30.18in /  1021.9hPa Calm     97% 0.00in /  0mm
07:08 31.6 °F /  -0.2 °C 30.9 °F /  -0.6 °C 30.18in /  1021.9hPa Calm     97% 0.00in /  0mm
07:13 31.5 °F /  -0.3 °C 30.7 °F /  -0.7 °C 30.18in /  1021.9hPa Calm     97% 0.00in /  0mm
07:18 31.5 °F /  -0.3 °C 30.7 °F /  -0.7 °C 30.18in /  1021.9hPa Calm     97% 0.00in /  0mm
07:23 31.3 °F /  -0.4 °C 30.6 °F /  -0.8 °C 30.19in /  1022.2hPa Calm     97% 0.00in /  0mm
07:28 31.3 °F /  -0.4 °C 30.6 °F /  -0.8 °C 30.19in /  1022.2hPa Calm     97% 0.00in /  0mm
07:39 31.3 °F /  -0.4 °C 30.6 °F /  -0.8 °C 30.19in /  1022.2hPa Calm     97% 0.00in /  0mm
07:44 31.3 °F /  -0.4 °C 30.6 °F /  -0.8 °C 30.19in /  1022.2hPa Calm     97% 0.00in /  0mm
07:49 31.3 °F /  -0.4 °C 30.7 °F /  -0.7 °C 30.19in /  1022.2hPa Calm     98% 0.00in /  0mm
07:54 31.5 °F /  -0.3 °C 30.9 °F /  -0.6 °C 30.19in /  1022.2hPa Calm     98% 0.00in /  0mm
07:59 31.6 °F /  -0.2 °C 31.1 °F /  -0.5 °C 30.19in /  1022.2hPa Calm     98% 0.00in /  0mm
08:04 31.8 °F /  -0.1 °C 31.3 °F /  -0.4 °C 30.20in /  1022.6hPa Calm     98% 0.00in /  0mm
08:09 32.2 °F /  0.1 °C 31.6 °F /  -0.2 °C 30.20in /  1022.6hPa Calm     98% 0.00in /  0mm
08:14 32.4 °F /  0.2 °C 31.8 °F /  -0.1 °C 30.19in /  1022.2hPa Calm     98% 0.00in /  0mm
08:20 32.4 °F /  0.2 °C 31.8 °F /  -0.1 °C 30.19in /  1022.2hPa Calm     98% 0.00in /  0mm
08:30 32.5 °F /  0.3 °C 32.0 °F /  0 °C 30.20in /  1022.6hPa Calm     98% 0.00in /  0mm
08:40 32.7 °F /  0.4 °C 32.2 °F /  0.1 °C 30.19in /  1022.2hPa Calm   1.0mph /  1.6km/h 98% 0.00in /  0mm
09:00 33.6 °F /  0.9 °C 33.1 °F /  0.6 °C 30.21in /  1022.9hPa Calm     98% 0.00in /  0mm
09:15 34.9 °F /  1.6 °C 34.3 °F /  1.3 °C 30.21in /  1022.9hPa Calm     98% 0.00in /  0mm
09:20 35.1 °F /  1.7 °C 34.3 °F /  1.3 °C 30.21in /  1022.9hPa Calm     97% 0.00in /  0mm
09:25 35.4 °F /  1.9 °C 34.7 °F /  1.5 °C 30.20in /  1022.6hPa Calm     97% 0.00in /  0mm
09:30 35.4 °F /  1.9 °C 34.3 °F /  1.3 °C 30.21in /  1022.9hPa Calm   1.0mph /  1.6km/h 96% 0.00in /  0mm
09:35 35.4 °F /  1.9 °C 34.2 °F /  1.2 °C 30.20in /  1022.6hPa Calm     95% 0.00in /  0mm
09:45 36.1 °F /  2.3 °C 34.9 °F /  1.6 °C 30.21in /  1022.9hPa Calm   1.0mph /  1.6km/h 95% 0.00in /  0mm
09:50 36.7 °F /  2.6 °C 34.9 °F /  1.6 °C 30.21in /  1022.9hPa Calm     93% 0.00in /  0mm
09:55 37.0 °F /  2.8 °C 34.7 °F /  1.5 °C 30.21in /  1022.9hPa East 0.9mph /  1.4km/h 1.0mph /  1.6km/h 91% 0.00in /  0mm
10:00 37.6 °F /  3.1 °C 34.3 °F /  1.3 °C 30.21in /  1022.9hPa Calm   1.0mph /  1.6km/h 88% 0.00in /  0mm
10:05 37.8 °F /  3.2 °C 34.5 °F /  1.4 °C 30.21in /  1022.9hPa Calm   1.0mph /  1.6km/h 88% 0.00in /  0mm
10:10 38.1 °F /  3.4 °C 34.3 °F /  1.3 °C 30.21in /  1022.9hPa Calm     86% 0.00in /  0mm
10:15 38.1 °F /  3.4 °C 32.7 °F /  0.4 °C 30.21in /  1022.9hPa Calm     81% 0.00in /  0mm
10:20 38.7 °F /  3.7 °C 33.1 °F /  0.6 °C 30.21in /  1022.9hPa Calm     80% 0.00in /  0mm
10:25 39.6 °F /  4.2 °C 34.9 °F /  1.6 °C 30.21in /  1022.9hPa Calm     83% 0.00in /  0mm
10:40 41.0 °F /  5 °C 33.1 °F /  0.6 °C 30.21in /  1022.9hPa Calm     73% 0.00in /  0mm
10:50 40.6 °F /  4.8 °C 32.0 °F /  0 °C 30.21in /  1022.9hPa Calm   1.0mph /  1.6km/h 71% 0.00in /  0mm
10:55 40.8 °F /  4.9 °C 31.8 °F /  -0.1 °C 30.20in /  1022.6hPa NE 0.9mph /  1.4km/h 2.0mph /  3.2km/h 70% 0.00in /  0mm
11:00 40.6 °F /  4.8 °C 30.6 °F /  -0.8 °C 30.20in /  1022.6hPa Calm   1.0mph /  1.6km/h 67% 0.00in /  0mm
11:05 41.2 °F /  5.1 °C 31.8 °F /  -0.1 °C 30.19in /  1022.2hPa Calm     69% 0.00in /  0mm
11:16 42.3 °F /  5.7 °C 31.6 °F /  -0.2 °C 30.19in /  1022.2hPa ESE 0.9mph /  1.4km/h 1.0mph /  1.6km/h 66% 0.00in /  0mm
11:23 42.4 °F /  5.8 °C 31.5 °F /  -0.3 °C 30.19in /  1022.2hPa Calm     65% 0.00in /  0mm
11:28 42.6 °F /  5.9 °C 31.6 °F /  -0.2 °C 30.19in /  1022.2hPa Calm   1.0mph /  1.6km/h 65% 0.00in /  0mm
11:38 42.4 °F /  5.8 °C 30.0 °F /  -1.1 °C 30.19in /  1022.2hPa Calm   1.0mph /  1.6km/h 61% 0.00in /  0mm
11:43 42.4 °F /  5.8 °C 27.5 °F /  -2.5 °C 30.19in /  1022.2hPa Calm     55% 0.00in /  0mm
11:48 42.3 °F /  5.7 °C 28.6 °F /  -1.9 °C 30.19in /  1022.2hPa Calm   1.0mph /  1.6km/h 58% 0.00in /  0mm
11:53 42.4 °F /  5.8 °C 29.1 °F /  -1.6 °C 30.19in /  1022.2hPa ENE 0.9mph /  1.4km/h 2.0mph /  3.2km/h 59% 0.00in /  0mm
12:08 42.8 °F /  6 °C 29.5 °F /  -1.4 °C 30.18in /  1021.9hPa Calm   2.0mph /  3.2km/h 59% 0.00in /  0mm
12:23 42.8 °F /  6 °C 29.5 °F /  -1.4 °C 30.17in /  1021.6hPa Calm   1.0mph /  1.6km/h 59% 0.00in /  0mm
12:33 43.0 °F /  6.1 °C 28.8 °F /  -1.8 °C 30.16in /  1021.2hPa Calm   1.0mph /  1.6km/h 57% 0.00in /  0mm
12:38 43.2 °F /  6.2 °C 29.3 °F /  -1.5 °C 30.16in /  1021.2hPa Calm   2.0mph /  3.2km/h 58% 0.00in /  0mm
12:48 43.0 °F /  6.1 °C 30.4 °F /  -0.9 °C 30.15in /  1020.9hPa Calm   1.0mph /  1.6km/h 61% 0.00in /  0mm
12:53 43.0 °F /  6.1 °C 30.0 °F /  -1.1 °C 30.15in /  1020.9hPa Calm     60% 0.00in /  0mm
12:58 43.2 °F /  6.2 °C 28.9 °F /  -1.7 °C 30.14in /  1020.5hPa Calm   1.0mph /  1.6km/h 57% 0.00in /  0mm
13:03 43.3 °F /  6.3 °C 29.5 °F /  -1.4 °C 30.14in /  1020.5hPa ESE 0.9mph /  1.4km/h 2.0mph /  3.2km/h 58% 0.00in /  0mm
13:13 43.7 °F /  6.5 °C 27.7 °F /  -2.4 °C 30.13in /  1020.2hPa Calm   3.0mph /  4.8km/h 53% 0.00in /  0mm
13:24 44.2 °F /  6.8 °C 29.1 °F /  -1.6 °C 30.13in /  1020.2hPa Calm     55% 0.00in /  0mm
13:29 44.8 °F /  7.1 °C 29.7 °F /  -1.3 °C 30.12in /  1019.9hPa Calm   1.0mph /  1.6km/h 55% 0.00in /  0mm
13:39 44.8 °F /  7.1 °C 26.8 °F /  -2.9 °C 30.11in /  1019.5hPa Calm   1.0mph /  1.6km/h 49% 0.00in /  0mm
13:44 44.8 °F /  7.1 °C 27.7 °F /  -2.4 °C 30.11in /  1019.5hPa Calm     51% 0.00in /  0mm
13:49 45.0 °F /  7.2 °C 27.5 °F /  -2.5 °C 30.11in /  1019.5hPa Calm     50% 0.00in /  0mm
13:54 44.8 °F /  7.1 °C 25.3 °F /  -3.7 °C 30.11in /  1019.5hPa SE 0.9mph /  1.4km/h 2.0mph /  3.2km/h 46% 0.00in /  0mm
13:59 44.6 °F /  7 °C 26.1 °F /  -3.3 °C 30.11in /  1019.5hPa Calm   1.0mph /  1.6km/h 48% 0.00in /  0mm
14:04 44.8 °F /  7.1 °C 28.8 °F /  -1.8 °C 30.11in /  1019.5hPa Calm   2.0mph /  3.2km/h 53% 0.00in /  0mm
14:14 44.6 °F /  7 °C 27.5 °F /  -2.5 °C 30.11in /  1019.5hPa Calm   1.0mph /  1.6km/h 51% 0.00in /  0mm
14:19 44.8 °F /  7.1 °C 28.8 °F /  -1.8 °C 30.11in /  1019.5hPa Calm   1.0mph /  1.6km/h 53% 0.00in /  0mm
14:29 44.4 °F /  6.9 °C 26.4 °F /  -3.1 °C 30.11in /  1019.5hPa Calm     49% 0.00in /  0mm
14:34 44.4 °F /  6.9 °C 27.9 °F /  -2.3 °C 30.11in /  1019.5hPa Calm   2.0mph /  3.2km/h 52% 0.00in /  0mm
14:39 44.2 °F /  6.8 °C 26.8 °F /  -2.9 °C 30.11in /  1019.5hPa Calm   1.0mph /  1.6km/h 50% 0.00in /  0mm
14:44 44.2 °F /  6.8 °C 27.3 °F /  -2.6 °C 30.11in /  1019.5hPa ENE 0.9mph /  1.4km/h 1.0mph /  1.6km/h 51% 0.00in /  0mm
14:49 44.4 °F /  6.9 °C 28.8 °F /  -1.8 °C 30.11in /  1019.5hPa Calm   1.0mph /  1.6km/h 54% 0.00in /  0mm
14:54 44.4 °F /  6.9 °C 27.0 °F /  -2.8 °C 30.10in /  1019.2hPa Calm   1.0mph /  1.6km/h 50% 0.00in /  0mm
15:04 44.8 °F /  7.1 °C 29.7 °F /  -1.3 °C 30.10in /  1019.2hPa Calm   1.0mph /  1.6km/h 55% 0.00in /  0mm
15:09 44.8 °F /  7.1 °C 27.3 °F /  -2.6 °C 30.09in /  1018.8hPa Calm   1.0mph /  1.6km/h 50% 0.00in /  0mm
15:14 44.6 °F /  7 °C 27.1 °F /  -2.7 °C 30.10in /  1019.2hPa Calm   1.0mph /  1.6km/h 50% 0.00in /  0mm
15:19 44.6 °F /  7 °C 25.7 °F /  -3.5 °C 30.10in /  1019.2hPa Calm   1.0mph /  1.6km/h 47% 0.00in /  0mm
15:34 44.6 °F /  7 °C 27.5 °F /  -2.5 °C 30.11in /  1019.5hPa ENE 0.9mph /  1.4km/h 1.0mph /  1.6km/h 51% 0.00in /  0mm
15:39 44.4 °F /  6.9 °C 26.4 °F /  -3.1 °C 30.11in /  1019.5hPa Calm   2.0mph /  3.2km/h 49% 0.00in /  0mm
15:44 44.2 °F /  6.8 °C 24.8 °F /  -4 °C 30.11in /  1019.5hPa Calm   2.0mph /  3.2km/h 46% 0.00in /  0mm
15:49 44.2 °F /  6.8 °C 25.3 °F /  -3.7 °C 30.11in /  1019.5hPa Calm   1.0mph /  1.6km/h 47% 0.00in /  0mm
15:55 44.1 °F /  6.7 °C 25.2 °F /  -3.8 °C 30.11in /  1019.5hPa Calm   2.0mph /  3.2km/h 47% 0.00in /  0mm
16:00 43.9 °F /  6.6 °C 25.0 °F /  -3.9 °C 30.11in /  1019.5hPa Calm   1.0mph /  1.6km/h 47% 0.00in /  0mm
16:05 43.7 °F /  6.5 °C 25.3 °F /  -3.7 °C 30.11in /  1019.5hPa Calm   1.0mph /  1.6km/h 48% 0.00in /  0mm
16:15 43.3 °F /  6.3 °C 25.0 °F /  -3.9 °C 30.11in /  1019.5hPa Calm   2.0mph /  3.2km/h 48% 0.00in /  0mm
16:25 43.3 °F /  6.3 °C 27.0 °F /  -2.8 °C 30.11in /  1019.5hPa Calm     52% 0.00in /  0mm
16:30 43.2 °F /  6.2 °C 26.2 °F /  -3.2 °C 30.11in /  1019.5hPa Calm   1.0mph /  1.6km/h 51% 0.00in /  0mm
16:40 42.8 °F /  6 °C 23.9 °F /  -4.5 °C 30.11in /  1019.5hPa Calm   1.0mph /  1.6km/h 47% 0.00in /  0mm
16:51 42.3 °F /  5.7 °C 24.4 °F /  -4.2 °C 30.12in /  1019.9hPa Calm     49% 0.00in /  0mm
16:56 42.1 °F /  5.6 °C 25.3 °F /  -3.7 °C 30.11in /  1019.5hPa Calm   1.0mph /  1.6km/h 51% 0.00in /  0mm
17:06 41.5 °F /  5.3 °C 24.3 °F /  -4.3 °C 30.12in /  1019.9hPa Calm     50% 0.00in /  0mm
17:11 41.4 °F /  5.2 °C 25.0 °F /  -3.9 °C 30.12in /  1019.9hPa Calm     52% 0.00in /  0mm
17:16 41.2 °F /  5.1 °C 25.3 °F /  -3.7 °C 30.12in /  1019.9hPa Calm     53% 0.00in /  0mm
17:21 41.0 °F /  5 °C 25.2 °F /  -3.8 °C 30.12in /  1019.9hPa Calm     53% 0.00in /  0mm
17:26 40.6 °F /  4.8 °C 24.4 °F /  -4.2 °C 30.12in /  1019.9hPa Calm     52% 0.00in /  0mm
17:31 40.5 °F /  4.7 °C 24.3 °F /  -4.3 °C 30.13in /  1020.2hPa Calm     52% 0.00in /  0mm
17:36 40.1 °F /  4.5 °C 24.3 °F /  -4.3 °C 30.13in /  1020.2hPa Calm     53% 0.00in /  0mm
17:41 39.9 °F /  4.4 °C 23.7 °F /  -4.6 °C 30.13in /  1020.2hPa Calm     52% 0.00in /  0mm
17:46 39.9 °F /  4.4 °C 23.7 °F /  -4.6 °C 30.13in /  1020.2hPa Calm     52% 0.00in /  0mm
17:51 39.7 °F /  4.3 °C 23.5 °F /  -4.7 °C 30.13in /  1020.2hPa Calm     52% 0.00in /  0mm
18:01 39.4 °F /  4.1 °C 23.7 °F /  -4.6 °C 30.13in /  1020.2hPa Calm     53% 0.00in /  0mm
18:16 39.0 °F /  3.9 °C 23.7 °F /  -4.6 °C 30.13in /  1020.2hPa Calm     54% 0.00in /  0mm
18:23 39.0 °F /  3.9 °C 23.7 °F /  -4.6 °C 30.13in /  1020.2hPa Calm     54% 0.00in /  0mm
18:28 39.0 °F /  3.9 °C 23.7 °F /  -4.6 °C 30.13in /  1020.2hPa Calm     54% 0.00in /  0mm
18:33 39.0 °F /  3.9 °C 24.3 °F /  -4.3 °C 30.13in /  1020.2hPa Calm   1.0mph /  1.6km/h 55% 0.00in /  0mm
18:43 38.8 °F /  3.8 °C 24.1 °F /  -4.4 °C 30.13in /  1020.2hPa Calm     55% 0.00in /  0mm
18:48 38.7 °F /  3.7 °C 23.9 °F /  -4.5 °C 30.13in /  1020.2hPa Calm     55% 0.00in /  0mm
18:54 38.5 °F /  3.6 °C 24.1 °F /  -4.4 °C 30.13in /  1020.2hPa Calm   1.0mph /  1.6km/h 56% 0.00in /  0mm
19:09 38.1 °F /  3.4 °C 24.3 °F /  -4.3 °C 30.14in /  1020.5hPa Calm     57% 0.00in /  0mm
19:14 38.1 °F /  3.4 °C 25.0 °F /  -3.9 °C 30.13in /  1020.2hPa Calm     59% 0.00in /  0mm
19:19 38.1 °F /  3.4 °C 25.0 °F /  -3.9 °C 30.13in /  1020.2hPa Calm     59% 0.00in /  0mm
19:24 37.9 °F /  3.3 °C 25.3 °F /  -3.7 °C 30.13in /  1020.2hPa Calm     60% 0.00in /  0mm
19:29 37.8 °F /  3.2 °C 25.2 °F /  -3.8 °C 30.13in /  1020.2hPa Calm     60% 0.00in /  0mm
19:44 37.8 °F /  3.2 °C 25.2 °F /  -3.8 °C 30.13in /  1020.2hPa Calm     60% 0.00in /  0mm
19:49 37.8 °F /  3.2 °C 25.2 °F /  -3.8 °C 30.12in /  1019.9hPa Calm     60% 0.00in /  0mm
19:59 37.8 °F /  3.2 °C 25.2 °F /  -3.8 °C 30.12in /  1019.9hPa Calm     60% 0.00in /  0mm
20:04 37.8 °F /  3.2 °C 25.9 °F /  -3.4 °C 30.13in /  1020.2hPa Calm     62% 0.00in /  0mm
20:19 37.6 °F /  3.1 °C 25.0 °F /  -3.9 °C 30.13in /  1020.2hPa Calm     60% 0.00in /  0mm
20:24 37.6 °F /  3.1 °C 25.0 °F /  -3.9 °C 30.13in /  1020.2hPa Calm     60% 0.00in /  0mm
20:29 37.6 °F /  3.1 °C 25.3 °F /  -3.7 °C 30.13in /  1020.2hPa Calm     61% 0.00in /  0mm
20:34 37.6 °F /  3.1 °C 25.0 °F /  -3.9 °C 30.12in /  1019.9hPa Calm     60% 0.00in /  0mm
20:39 37.2 °F /  2.9 °C 25.0 °F /  -3.9 °C 30.11in /  1019.5hPa Calm     61% 0.00in /  0mm
20:44 37.2 °F /  2.9 °C 25.0 °F /  -3.9 °C 30.11in /  1019.5hPa Calm     61% 0.00in /  0mm
20:49 37.0 °F /  2.8 °C 24.4 °F /  -4.2 °C 30.11in /  1019.5hPa Calm     60% 0.00in /  0mm
20:54 36.9 °F /  2.7 °C 24.6 °F /  -4.1 °C 30.12in /  1019.9hPa Calm     61% 0.00in /  0mm
20:59 36.7 °F /  2.6 °C 25.0 °F /  -3.9 °C 30.13in /  1020.2hPa Calm     62% 0.00in /  0mm
21:04 36.5 °F /  2.5 °C 24.8 °F /  -4 °C 30.12in /  1019.9hPa Calm     62% 0.00in /  0mm
21:09 36.3 °F /  2.4 °C 25.0 °F /  -3.9 °C 30.12in /  1019.9hPa Calm     63% 0.00in /  0mm
21:14 36.1 °F /  2.3 °C 25.2 °F /  -3.8 °C 30.11in /  1019.5hPa Calm     64% 0.00in /  0mm
21:20 36.0 °F /  2.2 °C 25.7 °F /  -3.5 °C 30.11in /  1019.5hPa Calm     66% 0.00in /  0mm
21:25 35.8 °F /  2.1 °C 26.6 °F /  -3 °C 30.12in /  1019.9hPa Calm     69% 0.00in /  0mm
21:35 36.0 °F /  2.2 °C 27.5 °F /  -2.5 °C 30.12in /  1019.9hPa Calm     71% 0.00in /  0mm
21:40 35.8 °F /  2.1 °C 27.7 °F /  -2.4 °C 30.13in /  1020.2hPa Calm     72% 0.00in /  0mm
21:45 35.8 °F /  2.1 °C 27.3 °F /  -2.6 °C 30.13in /  1020.2hPa Calm     71% 0.00in /  0mm
21:50 35.6 °F /  2 °C 26.8 °F /  -2.9 °C 30.12in /  1019.9hPa Calm     70% 0.00in /  0mm
21:55 35.6 °F /  2 °C 26.8 °F /  -2.9 °C 30.12in /  1019.9hPa Calm     70% 0.00in /  0mm
22:00 35.6 °F /  2 °C 27.1 °F /  -2.7 °C 30.12in /  1019.9hPa Calm     71% 0.00in /  0mm
22:16 35.2 °F /  1.8 °C 26.4 °F /  -3.1 °C 30.12in /  1019.9hPa Calm     70% 0.00in /  0mm
22:21 35.2 °F /  1.8 °C 26.8 °F /  -2.9 °C 30.11in /  1019.5hPa Calm     71% 0.00in /  0mm
22:23 35.2 °F /  1.8 °C 26.8 °F /  -2.9 °C 30.12in /  1019.9hPa Calm     71% 0.00in /  0mm
22:28 35.4 °F /  1.9 °C 27.0 °F /  -2.8 °C 30.11in /  1019.5hPa Calm     71% 0.00in /  0mm
22:33 35.4 °F /  1.9 °C 26.6 °F /  -3 °C 30.11in /  1019.5hPa Calm     70% 0.00in /  0mm
22:38 35.4 °F /  1.9 °C 26.6 °F /  -3 °C 30.11in /  1019.5hPa Calm     70% 0.00in /  0mm
22:43 35.4 °F /  1.9 °C 27.0 °F /  -2.8 °C 30.12in /  1019.9hPa Calm     71% 0.00in /  0mm
22:48 35.4 °F /  1.9 °C 27.0 °F /  -2.8 °C 30.12in /  1019.9hPa Calm     71% 0.00in /  0mm
22:58 35.2 °F /  1.8 °C 27.1 °F /  -2.7 °C 30.12in /  1019.9hPa Calm     72% 0.00in /  0mm
23:03 35.2 °F /  1.8 °C 26.4 °F /  -3.1 °C 30.11in /  1019.5hPa Calm     70% 0.00in /  0mm
23:08 35.4 °F /  1.9 °C 27.0 °F /  -2.8 °C 30.11in /  1019.5hPa Calm     71% 0.00in /  0mm
23:14 35.4 °F /  1.9 °C 26.6 °F /  -3 °C 30.11in /  1019.5hPa Calm     70% 0.00in /  0mm
23:24 35.6 °F /  2 °C 27.9 °F /  -2.3 °C 30.12in /  1019.9hPa Calm     73% 0.00in /  0mm
23:29 35.4 °F /  1.9 °C 27.7 °F /  -2.4 °C 30.12in /  1019.9hPa Calm     73% 0.00in /  0mm
23:34 35.2 °F /  1.8 °C 27.9 °F /  -2.3 °C 30.12in /  1019.9hPa Calm     74% 0.00in /  0mm
23:39 34.9 °F /  1.6 °C 27.7 °F /  -2.4 °C 30.13in /  1020.2hPa Calm     75% 0.00in /  0mm
23:44 34.7 °F /  1.5 °C 28.2 °F /  -2.1 °C 30.12in /  1019.9hPa Calm     77% 0.00in /  0mm
23:49 34.3 °F /  1.3 °C 27.9 °F /  -2.3 °C 30.12in /  1019.9hPa Calm     77% 0.00in /  0mm
23:54 34.3 °F /  1.3 °C 27.0 °F /  -2.8 °C 30.11in /  1019.5hPa Calm     74% 0.00in /  0mm
WheeWeather.com
Compliments of Weather Underground - 3.5 mb